| time (UTC) | temp C | wind direction | speed KPH | gust KPH | rain 1hr cm | rain 24hr cm | rain mn cm | humidity % | barometer mb |
| 20260503174020 | 17 | 316 | 9.7 | 16.1 | 0.00 | 0.05 | 0.05 | 47 | 1006.6 |
| 20260503173515 | 16 | 285 | 0.0 | 11.3 | 0.00 | 0.05 | 0.05 | 49 | 1006.7 |
| 20260503173012 | 17 | 24 | 4.8 | 32.2 | 0.00 | 0.05 | 0.05 | 48 | 1006.6 |
| 20260503172510 | 17 | 231 | 8.0 | 9.7 | 0.00 | 0.05 | 0.05 | 46 | 1006.5 |
| 20260503172006 | 17 | 260 | 0.0 | 14.5 | 0.00 | 0.05 | 0.05 | 47 | 1006.6 |
| 20260503171503 | 17 | 180 | 4.8 | 11.3 | 0.00 | 0.05 | 0.05 | 48 | 1006.8 |
| 20260503171000 | 17 | 261 | 3.2 | 11.3 | 0.00 | 0.05 | 0.05 | 49 | 1006.8 |
| 20260503170456 | 17 | 319 | 4.8 | 9.7 | 0.00 | 0.05 | 0.05 | 46 | 1006.8 |
| 20260503150849 | 13 | 321 | 4.8 | 24.1 | 0.00 | 0.05 | 0.05 | 56 | 1008.2 |
| 20260503150345 | 13 | 336 | 12.9 | 27.4 | 0.00 | 0.05 | 0.05 | 57 | 1008.1 |
| 20260503140309 | 10 | 212 | 0.0 | 1.6 | 0.00 | 0.05 | 0.05 | 64 | 1008.8 |
| 20260503131239 | 11 | 263 | 6.4 | 9.7 | 0.00 | 0.05 | 0.05 | 61 | 1008.8 |
| 20260503130736 | 11 | 212 | 0.0 | 3.2 | 0.00 | 0.05 | 0.05 | 63 | 1008.9 |
| 20260503130233 | 10 | 222 | 1.6 | 8.0 | 0.00 | 0.05 | 0.05 | 67 | 1008.8 |
| 20260503120159 | 7 | 202 | 0.0 | 3.2 | 0.00 | 0.05 | 0.05 | 83 | 1009.3 |
| 20260503110627 | 6 | 322 | 0.0 | 0.0 | 0.00 | 0.05 | 0.05 | 96 | 1009.3 |
| 20260503110124 | 6 | 273 | 0.0 | 0.0 | 0.00 | 0.05 | 0.05 | 96 | 1009.4 |
| 20260503081440 | 8 | 277 | 0.0 | 0.0 | 0.00 | 0.00 | 0.00 | 64 | 1010.8 |
| 20260503080937 | 8 | 237 | 1.6 | 3.2 | 0.00 | 0.00 | 0.00 | 64 | 1010.9 |
| 20260503080433 | 8 | 261 | 0.0 | 0.0 | 0.00 | 0.00 | 0.00 | 65 | 1010.9 |
| 20260503072909 | 7 | 273 | 0.0 | 0.0 | 0.00 | 0.00 | 0.00 | 67 | 1010.8 |
| 20260503072407 | 7 | 274 | 0.0 | 0.0 | 0.00 | 0.00 | 0.00 | 68 | 1010.8 |
| 20260503071903 | 7 | 241 | 0.0 | 0.0 | 0.00 | 0.00 | 0.00 | 68 | 1010.7 |
| 20260503071401 | 7 | 256 | 0.0 | 0.0 | 0.00 | 0.00 | 0.00 | 67 | 1011.1 |
| 20260503070856 | 7 | 225 | 0.0 | 0.0 | 0.00 | 0.00 | 0.00 | 68 | 1010.9 |
| 20260503070355 | 7 | 229 | 0.0 | 0.0 | 0.00 | 0.00 | 0.00 | 65 | 1011.2 |
| 20260503060320 | 7 | 271 | 0.0 | 1.6 | 0.00 | 0.00 | 0.00 | 72 | 1011.7 |
| 20260503054808 | 7 | 239 | 0.0 | 0.0 | 0.00 | 0.00 | 0.00 | 70 | 1011.9 |
| 20260503054304 | 7 | 245 | 0.0 | 0.0 | 0.00 | 0.00 | 0.00 | 68 | 1011.9 |
| 20260503053802 | 7 | 254 | 0.0 | 1.6 | 0.00 | 0.00 | 0.00 | 68 | 1011.8 |
| 20260503053300 | 7 | 274 | 0.0 | 0.0 | 0.00 | 0.00 | 0.00 | 67 | 1011.8 |
| 20260503052756 | 6 | 247 | 0.0 | 1.6 | 0.00 | 0.00 | 0.00 | 67 | 1012.0 |
| 20260503052253 | 6 | 266 | 0.0 | 0.0 | 0.00 | 0.00 | 0.00 | 68 | 1012.0 |
| 20260503051748 | 6 | 250 | 0.0 | 0.0 | 0.00 | 0.00 | 0.00 | 69 | 1011.9 |
| 20260503051246 | 7 | 271 | 0.0 | 0.0 | 0.00 | 0.00 | 0.00 | 67 | 1012.3 |
| 20260503050742 | 7 | 274 | 0.0 | 0.0 | 0.00 | 0.00 | 0.00 | 68 | 1012.2 |
| 20260503050239 | 7 | 277 | 0.0 | 0.0 | 0.00 | 0.00 | 0.00 | 68 | 1012.3 |
| 20260503045736 | 7 | 249 | 0.0 | 0.0 | 0.00 | 0.00 | 0.00 | 66 | 1012.3 |
| 20260503045234 | 7 | 248 | 0.0 | 0.0 | 0.00 | 0.00 | 0.00 | 65 | 1012.4 |
| 20260503044730 | 7 | 245 | 0.0 | 0.0 | 0.00 | 0.00 | 0.00 | 65 | 1012.2 |
| 20260503044228 | 7 | 250 | 0.0 | 0.0 | 0.00 | 0.00 | 0.00 | 64 | 1012.6 |
| 20260503043724 | 7 | 245 | 0.0 | 0.0 | 0.00 | 0.00 | 0.00 | 63 | 1012.3 |
| 20260503043222 | 7 | 244 | 0.0 | 0.0 | 0.00 | 0.00 | 0.00 | 62 | 1012.4 |
| 20260503042717 | 7 | 247 | 0.0 | 1.6 | 0.00 | 0.00 | 0.00 | 63 | 1012.4 |
| 20260503042214 | 7 | 231 | 0.0 | 0.0 | 0.00 | 0.00 | 0.00 | 63 | 1012.6 |
| 20260503041710 | 8 | 247 | 0.0 | 0.0 | 0.00 | 0.00 | 0.00 | 62 | 1012.8 |
| 20260503041208 | 8 | 260 | 0.0 | 3.2 | 0.00 | 0.00 | 0.00 | 59 | 1012.4 |
| 20260503040705 | 8 | 283 | 0.0 | 0.0 | 0.00 | 0.00 | 0.00 | 59 | 1012.7 |
| 20260503040203 | 8 | 252 | 0.0 | 1.6 | 0.00 | 0.00 | 0.00 | 61 | 1012.8 |
| 20260503035659 | 7 | 244 | 0.0 | 0.0 | 0.00 | 0.00 | 0.00 | 60 | 1012.7 |
| 20260503035157 | 7 | 263 | 0.0 | 3.2 | 0.00 | 0.00 | 0.00 | 61 | 1012.8 |
| 20260503034654 | 7 | 228 | 0.0 | 0.0 | 0.00 | 0.00 | 0.00 | 61 | 1012.9 |
| 20260503034151 | 7 | 272 | 0.0 | 0.0 | 0.00 | 0.00 | 0.00 | 61 | 1013.0 |
| 20260503033648 | 7 | 291 | 0.0 | 0.0 | 0.00 | 0.00 | 0.00 | 60 | 1012.9 |
| 20260503033146 | 7 | 246 | 0.0 | 0.0 | 0.00 | 0.00 | 0.00 | 59 | 1013.0 |
| 20260503032644 | 7 | 254 | 0.0 | 0.0 | 0.00 | 0.00 | 0.00 | 58 | 1013.2 |
| 20260503032143 | 7 | 252 | 0.0 | 4.8 | 0.00 | 0.00 | 0.00 | 57 | 1013.0 |
| 20260503031639 | 7 | 244 | 0.0 | 0.0 | 0.00 | 0.00 | 0.00 | 58 | 1013.2 |
| 20260503031137 | 7 | 245 | 0.0 | 0.0 | 0.00 | 0.00 | 0.00 | 57 | 1013.2 |
| 20260503030633 | 7 | 254 | 0.0 | 0.0 | 0.00 | 0.00 | 0.00 | 59 | 1013.3 |
| 20260503030130 | 7 | 264 | 0.0 | 3.2 | 0.00 | 0.00 | 0.00 | 56 | 1013.5 |
| 20260503025626 | 7 | 272 | 0.0 | 0.0 | 0.00 | 0.00 | 0.00 | 55 | 1013.5 |
| 20260503025125 | 7 | 260 | 0.0 | 0.0 | 0.00 | 0.00 | 0.00 | 55 | 1013.5 |
| 20260503024621 | 7 | 247 | 0.0 | 0.0 | 0.00 | 0.00 | 0.00 | 54 | 1013.6 |
| 20260503024118 | 7 | 247 | 0.0 | 0.0 | 0.00 | 0.00 | 0.00 | 54 | 1013.5 |
| 20260503023615 | 8 | 245 | 0.0 | 0.0 | 0.00 | 0.00 | 0.00 | 52 | 1013.5 |
| 20260503023112 | 8 | 241 | 0.0 | 0.0 | 0.00 | 0.00 | 0.00 | 51 | 1013.3 |
| 20260503022607 | 8 | 248 | 0.0 | 1.6 | 0.00 | 0.00 | 0.00 | 50 | 1013.5 |
| 20260503022102 | 9 | 279 | 0.0 | 4.8 | 0.00 | 0.00 | 0.00 | 49 | 1013.9 |
| 20260503021600 | 9 | 253 | 3.2 | 3.2 | 0.00 | 0.00 | 0.00 | 49 | 1013.6 |
| 20260503021056 | 8 | 271 | 0.0 | 3.2 | 0.00 | 0.00 | 0.00 | 48 | 1013.7 |
| 20260503020553 | 8 | 267 | 0.0 | 0.0 | 0.00 | 0.00 | 0.00 | 47 | 1013.7 |
| 20260503020050 | 8 | 266 | 0.0 | 3.2 | 0.00 | 0.00 | 0.00 | 46 | 1013.8 |
| 20260503015547 | 8 | 262 | 0.0 | 0.0 | 0.00 | 0.00 | 0.00 | 46 | 1013.7 |
| 20260503015045 | 8 | 252 | 0.0 | 0.0 | 0.00 | 0.00 | 0.00 | 45 | 1013.8 |
| 20260503014540 | 9 | 256 | 0.0 | 0.0 | 0.00 | 0.00 | 0.00 | 45 | 1013.7 |
| 20260503014038 | 10 | 256 | 0.0 | 1.6 | 0.00 | 0.00 | 0.00 | 43 | 1013.7 |
| 20260503013535 | 9 | 267 | 0.0 | 0.0 | 0.00 | 0.00 | 0.00 | 44 | 1013.5 |
| 20260503013033 | 10 | 277 | 0.0 | 0.0 | 0.00 | 0.00 | 0.00 | 44 | 1013.6 |
| 20260503012530 | 10 | 248 | 0.0 | 0.0 | 0.00 | 0.00 | 0.00 | 42 | 1013.6 |
| 20260503012026 | 10 | 258 | 0.0 | 0.0 | 0.00 | 0.00 | 0.00 | 41 | 1013.4 |
| 20260503011523 | 10 | 256 | 0.0 | 0.0 | 0.00 | 0.00 | 0.00 | 41 | 1013.5 |
| 20260503011021 | 11 | 266 | 0.0 | 0.0 | 0.00 | 0.00 | 0.00 | 41 | 1013.5 |
| 20260503010516 | 11 | 259 | 3.2 | 4.8 | 0.00 | 0.00 | 0.00 | 39 | 1013.6 |
| 20260503010015 | 11 | 250 | 1.6 | 3.2 | 0.00 | 0.00 | 0.00 | 39 | 1013.6 |
| 20260503005511 | 11 | 274 | 0.0 | 1.6 | 0.00 | 0.00 | 0.00 | 39 | 1013.6 |
| 20260503005009 | 11 | 231 | 0.0 | 1.6 | 0.00 | 0.00 | 0.00 | 38 | 1013.5 |
| 20260503004504 | 12 | 307 | 4.8 | 8.0 | 0.00 | 0.00 | 0.00 | 38 | 1013.6 |
| 20260503004003 | 12 | 291 | 4.8 | 8.0 | 0.00 | 0.00 | 0.00 | 36 | 1013.6 |
| 20260503003459 | 12 | 332 | 9.7 | 14.5 | 0.00 | 0.00 | 0.00 | 36 | 1013.7 |
| 20260503002956 | 12 | 278 | 0.0 | 3.2 | 0.00 | 0.00 | 0.00 | 37 | 1013.7 |
| 20260503002453 | 12 | 279 | 3.2 | 8.0 | 0.00 | 0.00 | 0.00 | 35 | 1013.4 |
| 20260503001949 | 12 | 303 | 6.4 | 9.7 | 0.00 | 0.00 | 0.00 | 34 | 1013.6 |
| 20260503001446 | 13 | 318 | 8.0 | 16.1 | 0.00 | 0.00 | 0.00 | 34 | 1013.6 |
| 20260503000944 | 13 | 283 | 8.0 | 12.9 | 0.00 | 0.00 | 0.00 | 35 | 1013.7 |
| 20260503000441 | 13 | 279 | 8.0 | 11.3 | 0.00 | 0.00 | 0.00 | 34 | 1013.9 |
| 20260502235938 | 13 | 275 | 4.8 | 9.7 | 0.00 | 0.00 | 0.00 | 34 | 1013.6 |
| 20260502235435 | 13 | 316 | 8.0 | 12.9 | 0.00 | 0.00 | 0.00 | 33 | 1013.8 |
| 20260502234932 | 13 | 288 | 4.8 | 11.3 | 0.00 | 0.00 | 0.00 | 34 | 1013.8 |
| 20260502234429 | 13 | 327 | 6.4 | 11.3 | 0.00 | 0.00 | 0.00 | 36 | 1013.6 |
| 20260502233926 | 13 | 291 | 12.9 | 17.7 | 0.00 | 0.00 | 0.00 | 33 | 1013.6 |
| 20260502233421 | 13 | 292 | 4.8 | 14.5 | 0.00 | 0.00 | 0.00 | 33 | 1013.8 |
| 20260502232918 | 13 | 296 | 4.8 | 12.9 | 0.00 | 0.00 | 0.00 | 32 | 1013.7 |
| 20260502232414 | 13 | 275 | 8.0 | 9.7 | 0.00 | 0.00 | 0.00 | 33 | 1014.0 |
| 20260502231912 | 13 | 308 | 4.8 | 14.5 | 0.00 | 0.00 | 0.00 | 34 | 1013.9 |
| 20260502231409 | 14 | 253 | 1.6 | 8.0 | 0.00 | 0.00 | 0.00 | 33 | 1014.0 |
| 20260502230907 | 13 | 305 | 9.7 | 14.5 | 0.00 | 0.00 | 0.00 | 34 | 1014.1 |
| 20260502230405 | 13 | 323 | 3.2 | 12.9 | 0.00 | 0.00 | 0.00 | 34 | 1014.3 |
| 20260502225902 | 13 | 300 | 8.0 | 9.7 | 0.00 | 0.00 | 0.00 | 34 | 1014.0 |
| 20260502225358 | 14 | 274 | 1.6 | 8.0 | 0.00 | 0.00 | 0.00 | 34 | 1014.1 |
| 20260502224855 | 13 | 270 | 6.4 | 20.9 | 0.00 | 0.00 | 0.00 | 32 | 1013.9 |
| 20260502224351 | 14 | 232 | 4.8 | 4.8 | 0.00 | 0.00 | 0.00 | 33 | 1014.0 |
| 20260502223849 | 13 | 288 | 1.6 | 14.5 | 0.00 | 0.00 | 0.00 | 34 | 1014.3 |
| 20260502223347 | 13 | 311 | 9.7 | 17.7 | 0.00 | 0.00 | 0.00 | 33 | 1014.3 |
| 20260502222844 | 13 | 283 | 8.0 | 12.9 | 0.00 | 0.00 | 0.00 | 32 | 1014.4 |
| 20260502222342 | 13 | 314 | 17.7 | 17.7 | 0.00 | 0.00 | 0.00 | 32 | 1014.4 |
| 20260502221837 | 13 | 302 | 1.6 | 11.3 | 0.00 | 0.00 | 0.00 | 32 | 1014.1 |
| 20260502221334 | 13 | 262 | 1.6 | 11.3 | 0.00 | 0.00 | 0.00 | 31 | 1014.4 |
| 20260502220831 | 14 | 337 | 0.0 | 17.7 | 0.00 | 0.00 | 0.00 | 33 | 1014.4 |
| 20260502220327 | 14 | 310 | 8.0 | 16.1 | 0.00 | 0.00 | 0.00 | 32 | 1014.4 |
| 20260502215823 | 15 | 336 | 1.6 | 8.0 | 0.00 | 0.00 | 0.00 | 33 | 1014.4 |
| 20260502215321 | 14 | 237 | 1.6 | 4.8 | 0.00 | 0.00 | 0.00 | 33 | 1014.6 |
| 20260502214818 | 13 | 327 | 8.0 | 20.9 | 0.00 | 0.00 | 0.00 | 33 | 1014.5 |
| 20260502214315 | 13 | 255 | 9.7 | 17.7 | 0.00 | 0.00 | 0.00 | 32 | 1014.6 |
| 20260502213812 | 13 | 297 | 8.0 | 12.9 | 0.00 | 0.00 | 0.00 | 32 | 1014.5 |
| 20260502213309 | 13 | 310 | 6.4 | 14.5 | 0.00 | 0.00 | 0.00 | 32 | 1014.6 |
| 20260502212808 | 13 | 260 | 14.5 | 22.5 | 0.00 | 0.00 | 0.00 | 32 | 1014.8 |
| 20260502212306 | 14 | 278 | 8.0 | 16.1 | 0.00 | 0.00 | 0.00 | 31 | 1015.0 |
| 20260502211802 | 13 | 256 | 4.8 | 16.1 | 0.00 | 0.00 | 0.00 | 32 | 1015.3 |
| 20260502211258 | 13 | 321 | 8.0 | 12.9 | 0.00 | 0.00 | 0.00 | 33 | 1015.0 |
| 20260502210755 | 12 | 300 | 9.7 | 22.5 | 0.00 | 0.00 | 0.00 | 33 | 1015.0 |
| 20260502210253 | 13 | 263 | 1.6 | 14.5 | 0.00 | 0.00 | 0.00 | 35 | 1015.2 |
| 20260502205750 | 14 | 319 | 4.8 | 4.8 | 0.00 | 0.00 | 0.00 | 35 | 1015.2 |
| 20260502205246 | 13 | 249 | 0.0 | 11.3 | 0.00 | 0.00 | 0.00 | 33 | 1015.3 |
| 20260502204743 | 13 | 272 | 3.2 | 4.8 | 0.00 | 0.00 | 0.00 | 33 | 1015.4 |
| 20260502204240 | 13 | 258 | 1.6 | 4.8 | 0.00 | 0.00 | 0.00 | 32 | 1015.7 |
| 20260502203738 | 13 | 326 | 11.3 | 16.1 | 0.00 | 0.00 | 0.00 | 33 | 1015.4 |
| 20260502203236 | 13 | 289 | 1.6 | 9.7 | 0.00 | 0.00 | 0.00 | 31 | 1015.7 |
| 20260502202729 | 12 | 307 | 4.8 | 17.7 | 0.00 | 0.00 | 0.00 | 32 | 1015.6 |
| 20260502202228 | 13 | 278 | 0.0 | 3.2 | 0.00 | 0.00 | 0.00 | 32 | 1015.8 |
| 20260502201725 | 13 | 82 | 0.0 | 4.8 | 0.00 | 0.00 | 0.00 | 34 | 1016.0 |
| 20260502201222 | 12 | 329 | 8.0 | 11.3 | 0.00 | 0.00 | 0.00 | 34 | 1016.1 |
| 20260502200718 | 12 | 286 | 9.7 | 24.1 | 0.00 | 0.00 | 0.00 | 34 | 1016.4 |
| 20260502200214 | 12 | 320 | 17.7 | 24.1 | 0.00 | 0.00 | 0.00 | 33 | 1016.1 |
| 20260502195713 | 12 | 284 | 14.5 | 17.7 | 0.00 | 0.00 | 0.00 | 33 | 1016.4 |
| 20260502195209 | 13 | 284 | 9.7 | 20.9 | 0.00 | 0.00 | 0.00 | 33 | 1016.0 |
| 20260502194706 | 13 | 269 | 4.8 | 4.8 | 0.00 | 0.00 | 0.00 | 32 | 1016.3 |
| 20260502194203 | 13 | 20 | 8.0 | 16.1 | 0.00 | 0.00 | 0.00 | 34 | 1016.7 |
| 20260502193658 | 12 | 295 | 6.4 | 12.9 | 0.00 | 0.00 | 0.00 | 33 | 1016.6 |
| 20260502193156 | 12 | 280 | 4.8 | 4.8 | 0.00 | 0.00 | 0.00 | 34 | 1016.7 |
| 20260502192651 | 12 | 283 | 6.4 | 9.7 | 0.00 | 0.00 | 0.00 | 35 | 1016.8 |
| 20260502192149 | 12 | 287 | 6.4 | 9.7 | 0.00 | 0.00 | 0.00 | 37 | 1017.0 |
| 20260502191645 | 11 | 247 | 6.4 | 16.1 | 0.00 | 0.00 | 0.00 | 36 | 1017.2 |
| 20260502191143 | 12 | 313 | 3.2 | 12.9 | 0.00 | 0.00 | 0.00 | 35 | 1016.9 |
| 20260502190640 | 12 | 251 | 6.4 | 14.5 | 0.00 | 0.00 | 0.00 | 35 | 1016.9 |
| 20260502190138 | 13 | 316 | 6.4 | 8.0 | 0.00 | 0.00 | 0.00 | 34 | 1017.0 |
| 20260502185632 | 12 | 261 | 6.4 | 29.0 | 0.00 | 0.00 | 0.00 | 35 | 1017.1 |
| 20260502185129 | 12 | 319 | 4.8 | 20.9 | 0.00 | 0.00 | 0.00 | 35 | 1017.2 |
| 20260502184625 | 11 | 314 | 6.4 | 12.9 | 0.00 | 0.00 | 0.00 | 35 | 1017.2 |
| 20260502184121 | 12 | 356 | 9.7 | 17.7 | 0.00 | 0.00 | 0.00 | 36 | 1017.3 |
| 20260502183618 | 12 | 344 | 11.3 | 25.7 | 0.00 | 0.00 | 0.00 | 36 | 1017.3 |
| 20260502183114 | 11 | 271 | 0.0 | 14.5 | 0.00 | 0.00 | 0.00 | 38 | 1017.6 |
| 20260502182609 | 11 | 309 | 12.9 | 16.1 | 0.00 | 0.00 | 0.00 | 38 | 1017.7 |
| 20260502182105 | 12 | 317 | 12.9 | 16.1 | 0.00 | 0.00 | 0.00 | 36 | 1017.9 |
| 20260502181603 | 12 | 297 | 6.4 | 14.5 | 0.00 | 0.00 | 0.00 | 36 | 1017.7 |
| 20260502181102 | 11 | 318 | 0.0 | 4.8 | 0.00 | 0.00 | 0.00 | 36 | 1017.9 |
| 20260502180559 | 10 | 325 | 4.8 | 17.7 | 0.00 | 0.00 | 0.00 | 39 | 1017.7 |